sensor_id;sensor_type;location;lat;lon;timestamp;temperature;humidity
57390;DHT22;43217;52.694;6.214;2023-05-07T00:01:09;14.90;99.90
57390;DHT22;43217;52.694;6.214;2023-05-07T00:03:36;14.90;99.90
57390;DHT22;43217;52.694;6.214;2023-05-07T00:06:02;15.00;99.90
57390;DHT22;43217;52.694;6.214;2023-05-07T00:08:27;15.00;99.90
57390;DHT22;43217;52.694;6.214;2023-05-07T00:10:53;15.00;99.90
57390;DHT22;43217;52.694;6.214;2023-05-07T00:13:18;15.00;99.90
57390;DHT22;43217;52.694;6.214;2023-05-07T00:15:44;14.90;99.90
57390;DHT22;43217;52.694;6.214;2023-05-07T00:18:10;15.00;99.90
57390;DHT22;43217;52.694;6.214;2023-05-07T00:20:35;14.90;99.90
57390;DHT22;43217;52.694;6.214;2023-05-07T00:23:01;14.90;99.90
57390;DHT22;43217;52.694;6.214;2023-05-07T00:25:26;15.00;99.90
57390;DHT22;43217;52.694;6.214;2023-05-07T00:27:52;14.90;99.90
57390;DHT22;43217;52.694;6.214;2023-05-07T00:30:18;14.90;99.90
57390;DHT22;43217;52.694;6.214;2023-05-07T00:32:43;14.80;99.90
57390;DHT22;43217;52.694;6.214;2023-05-07T00:35:11;14.80;99.90
57390;DHT22;43217;52.694;6.214;2023-05-07T00:37:36;14.70;99.90
57390;DHT22;43217;52.694;6.214;2023-05-07T00:40:02;14.70;99.90
57390;DHT22;43217;52.694;6.214;2023-05-07T00:42:30;14.70;99.90
57390;DHT22;43217;52.694;6.214;2023-05-07T00:44:58;14.70;99.90
57390;DHT22;43217;52.694;6.214;2023-05-07T00:47:25;14.60;99.90
57390;DHT22;43217;52.694;6.214;2023-05-07T00:49:51;14.60;99.90
57390;DHT22;43217;52.694;6.214;2023-05-07T00:52:17;14.60;99.90
57390;DHT22;43217;52.694;6.214;2023-05-07T00:54:45;14.50;99.90
57390;DHT22;43217;52.694;6.214;2023-05-07T00:57:11;14.50;99.90
57390;DHT22;43217;52.694;6.214;2023-05-07T00:59:37;14.50;99.90
57390;DHT22;43217;52.694;6.214;2023-05-07T01:02:03;14.50;99.90
57390;DHT22;43217;52.694;6.214;2023-05-07T01:04:29;14.50;99.90
57390;DHT22;43217;52.694;6.214;2023-05-07T01:06:55;14.50;99.90
57390;DHT22;43217;52.694;6.214;2023-05-07T01:09:23;14.50;99.90
57390;DHT22;43217;52.694;6.214;2023-05-07T01:11:50;14.50;99.90
57390;DHT22;43217;52.694;6.214;2023-05-07T01:14:17;14.50;99.90
57390;DHT22;43217;52.694;6.214;2023-05-07T01:16:42;14.50;99.90
57390;DHT22;43217;52.694;6.214;2023-05-07T01:19:09;14.40;99.90
57390;DHT22;43217;52.694;6.214;2023-05-07T01:21:37;14.40;99.90
57390;DHT22;43217;52.694;6.214;2023-05-07T01:24:04;14.40;99.90
57390;DHT22;43217;52.694;6.214;2023-05-07T01:26:30;14.40;99.90
57390;DHT22;43217;52.694;6.214;2023-05-07T01:28:56;14.30;99.90
57390;DHT22;43217;52.694;6.214;2023-05-07T01:31:23;14.40;99.90
57390;DHT22;43217;52.694;6.214;2023-05-07T01:33:50;14.30;99.90
57390;DHT22;43217;52.694;6.214;2023-05-07T01:36:17;14.30;99.90
57390;DHT22;43217;52.694;6.214;2023-05-07T01:38:44;14.20;99.90
57390;DHT22;43217;52.694;6.214;2023-05-07T01:41:11;14.20;99.90
57390;DHT22;43217;52.694;6.214;2023-05-07T01:43:38;14.20;99.90
57390;DHT22;43217;52.694;6.214;2023-05-07T01:46:05;14.20;99.90
57390;DHT22;43217;52.694;6.214;2023-05-07T01:48:32;14.20;99.90
57390;DHT22;43217;52.694;6.214;2023-05-07T01:50:58;14.20;99.90
57390;DHT22;43217;52.694;6.214;2023-05-07T01:53:27;14.20;99.90
57390;DHT22;43217;52.694;6.214;2023-05-07T01:55:53;14.20;99.90
57390;DHT22;43217;52.694;6.214;2023-05-07T01:58:19;14.20;99.90
57390;DHT22;43217;52.694;6.214;2023-05-07T02:00:44;14.20;99.90
57390;DHT22;43217;52.694;6.214;2023-05-07T02:03:10;14.10;99.90
57390;DHT22;43217;52.694;6.214;2023-05-07T02:05:36;14.10;99.90
57390;DHT22;43217;52.694;6.214;2023-05-07T02:08:01;14.10;99.90
57390;DHT22;43217;52.694;6.214;2023-05-07T02:10:27;14.10;99.90
57390;DHT22;43217;52.694;6.214;2023-05-07T02:12:52;14.10;99.90
57390;DHT22;43217;52.694;6.214;2023-05-07T02:15:18;14.00;99.90
57390;DHT22;43217;52.694;6.214;2023-05-07T02:18:05;14.00;99.90
57390;DHT22;43217;52.694;6.214;2023-05-07T02:20:31;14.00;99.90
57390;DHT22;43217;52.694;6.214;2023-05-07T02:22:57;14.00;99.90
57390;DHT22;43217;52.694;6.214;2023-05-07T02:25:22;13.90;99.90
57390;DHT22;43217;52.694;6.214;2023-05-07T02:27:48;14.00;99.90
57390;DHT22;43217;52.694;6.214;2023-05-07T02:30:14;14.00;99.90
57390;DHT22;43217;52.694;6.214;2023-05-07T02:32:40;13.90;99.90
57390;DHT22;43217;52.694;6.214;2023-05-07T02:35:06;13.90;99.90
57390;DHT22;43217;52.694;6.214;2023-05-07T02:37:31;13.80;99.90
57390;DHT22;43217;52.694;6.214;2023-05-07T02:39:57;13.80;99.90
57390;DHT22;43217;52.694;6.214;2023-05-07T02:42:23;13.80;99.90
57390;DHT22;43217;52.694;6.214;2023-05-07T02:44:48;13.70;99.90
57390;DHT22;43217;52.694;6.214;2023-05-07T02:47:15;13.70;99.90
57390;DHT22;43217;52.694;6.214;2023-05-07T02:49:41;13.60;99.90
57390;DHT22;43217;52.694;6.214;2023-05-07T02:52:06;13.50;99.90
57390;DHT22;43217;52.694;6.214;2023-05-07T02:54:32;13.50;99.90
57390;DHT22;43217;52.694;6.214;2023-05-07T02:56:58;13.40;99.90
57390;DHT22;43217;52.694;6.214;2023-05-07T02:59:24;13.40;99.90
57390;DHT22;43217;52.694;6.214;2023-05-07T03:01:51;13.40;99.90
57390;DHT22;43217;52.694;6.214;2023-05-07T03:04:17;13.30;99.90
57390;DHT22;43217;52.694;6.214;2023-05-07T03:06:42;13.30;99.90
57390;DHT22;43217;52.694;6.214;2023-05-07T03:09:08;13.20;99.90
57390;DHT22;43217;52.694;6.214;2023-05-07T03:11:34;13.20;99.90
57390;DHT22;43217;52.694;6.214;2023-05-07T03:14:01;13.20;99.90
57390;DHT22;43217;52.694;6.214;2023-05-07T03:16:26;13.20;99.90
57390;DHT22;43217;52.694;6.214;2023-05-07T03:18:52;13.10;99.90
57390;DHT22;43217;52.694;6.214;2023-05-07T03:21:18;13.10;99.90
57390;DHT22;43217;52.694;6.214;2023-05-07T03:23:43;13.10;99.90
57390;DHT22;43217;52.694;6.214;2023-05-07T03:26:09;13.00;99.90
57390;DHT22;43217;52.694;6.214;2023-05-07T03:28:35;13.00;99.90
57390;DHT22;43217;52.694;6.214;2023-05-07T03:31:00;12.90;99.90
57390;DHT22;43217;52.694;6.214;2023-05-07T03:33:26;12.90;99.90
57390;DHT22;43217;52.694;6.214;2023-05-07T03:35:53;12.90;99.90
57390;DHT22;43217;52.694;6.214;2023-05-07T03:38:18;12.80;99.90
57390;DHT22;43217;52.694;6.214;2023-05-07T03:40:47;12.80;99.90
57390;DHT22;43217;52.694;6.214;2023-05-07T03:43:12;12.80;99.90
57390;DHT22;43217;52.694;6.214;2023-05-07T03:45:38;12.80;99.90
57390;DHT22;43217;52.694;6.214;2023-05-07T03:48:04;12.70;99.90
57390;DHT22;43217;52.694;6.214;2023-05-07T03:50:31;12.80;99.90
57390;DHT22;43217;52.694;6.214;2023-05-07T03:52:56;12.70;99.90
57390;DHT22;43217;52.694;6.214;2023-05-07T03:55:22;12.70;99.90
57390;DHT22;43217;52.694;6.214;2023-05-07T03:57:48;12.70;99.90
57390;DHT22;43217;52.694;6.214;2023-05-07T04:00:14;12.70;99.90
57390;DHT22;43217;52.694;6.214;2023-05-07T04:02:39;12.60;99.90
57390;DHT22;43217;52.694;6.214;2023-05-07T04:05:05;12.60;99.90
57390;DHT22;43217;52.694;6.214;2023-05-07T04:07:31;12.60;99.90
57390;DHT22;43217;52.694;6.214;2023-05-07T04:09:56;12.60;99.90
57390;DHT22;43217;52.694;6.214;2023-05-07T04:12:22;12.60;99.90
57390;DHT22;43217;52.694;6.214;2023-05-07T04:14:47;12.60;99.90
57390;DHT22;43217;52.694;6.214;2023-05-07T04:17:13;12.60;99.90
57390;DHT22;43217;52.694;6.214;2023-05-07T04:19:38;12.60;99.90
57390;DHT22;43217;52.694;6.214;2023-05-07T04:22:04;12.50;99.90
57390;DHT22;43217;52.694;6.214;2023-05-07T04:24:33;12.50;99.90
57390;DHT22;43217;52.694;6.214;2023-05-07T04:26:58;12.50;99.90
57390;DHT22;43217;52.694;6.214;2023-05-07T04:29:24;12.50;99.90
57390;DHT22;43217;52.694;6.214;2023-05-07T04:31:53;12.50;99.90
57390;DHT22;43217;52.694;6.214;2023-05-07T04:34:18;12.40;99.90
57390;DHT22;43217;52.694;6.214;2023-05-07T04:36:44;12.40;99.90
57390;DHT22;43217;52.694;6.214;2023-05-07T04:39:09;12.40;99.90
57390;DHT22;43217;52.694;6.214;2023-05-07T04:41:36;12.50;99.90
57390;DHT22;43217;52.694;6.214;2023-05-07T04:44:02;12.40;99.90
57390;DHT22;43217;52.694;6.214;2023-05-07T04:46:30;12.40;99.90
57390;DHT22;43217;52.694;6.214;2023-05-07T04:48:55;12.40;99.90
57390;DHT22;43217;52.694;6.214;2023-05-07T04:51:21;12.30;99.90
57390;DHT22;43217;52.694;6.214;2023-05-07T04:53:47;12.30;99.90
57390;DHT22;43217;52.694;6.214;2023-05-07T04:56:13;12.40;99.90
57390;DHT22;43217;52.694;6.214;2023-05-07T04:58:38;12.40;99.90
57390;DHT22;43217;52.694;6.214;2023-05-07T05:01:04;12.40;99.90
57390;DHT22;43217;52.694;6.214;2023-05-07T05:03:33;12.40;99.90
57390;DHT22;43217;52.694;6.214;2023-05-07T05:05:59;12.40;99.90
57390;DHT22;43217;52.694;6.214;2023-05-07T05:08:25;12.40;99.90
57390;DHT22;43217;52.694;6.214;2023-05-07T05:10:51;12.30;99.90
57390;DHT22;43217;52.694;6.214;2023-05-07T05:13:16;12.40;99.90
57390;DHT22;43217;52.694;6.214;2023-05-07T05:15:42;12.40;99.90
57390;DHT22;43217;52.694;6.214;2023-05-07T05:18:08;12.40;99.90
57390;DHT22;43217;52.694;6.214;2023-05-07T05:20:33;12.40;99.90
57390;DHT22;43217;52.694;6.214;2023-05-07T05:22:59;12.40;99.90
57390;DHT22;43217;52.694;6.214;2023-05-07T05:25:27;12.40;99.90
57390;DHT22;43217;52.694;6.214;2023-05-07T05:27:53;12.40;99.90
57390;DHT22;43217;52.694;6.214;2023-05-07T05:30:19;12.40;99.90
57390;DHT22;43217;52.694;6.214;2023-05-07T05:32:45;12.40;99.90
57390;DHT22;43217;52.694;6.214;2023-05-07T05:35:10;12.50;99.90
57390;DHT22;43217;52.694;6.214;2023-05-07T05:37:36;12.50;99.90
57390;DHT22;43217;52.694;6.214;2023-05-07T05:40:01;12.50;99.90
57390;DHT22;43217;52.694;6.214;2023-05-07T05:42:27;12.50;99.90
57390;DHT22;43217;52.694;6.214;2023-05-07T05:44:53;12.60;99.90
57390;DHT22;43217;52.694;6.214;2023-05-07T05:47:20;12.60;99.90
57390;DHT22;43217;52.694;6.214;2023-05-07T05:49:45;12.60;99.90
57390;DHT22;43217;52.694;6.214;2023-05-07T05:52:12;12.60;99.90
57390;DHT22;43217;52.694;6.214;2023-05-07T05:54:39;12.60;99.90
57390;DHT22;43217;52.694;6.214;2023-05-07T05:57:05;12.60;99.90
57390;DHT22;43217;52.694;6.214;2023-05-07T05:59:31;12.60;99.90
57390;DHT22;43217;52.694;6.214;2023-05-07T06:01:58;12.70;99.90
57390;DHT22;43217;52.694;6.214;2023-05-07T06:04:23;12.70;99.90
57390;DHT22;43217;52.694;6.214;2023-05-07T06:06:49;12.70;99.90
57390;DHT22;43217;52.694;6.214;2023-05-07T06:09:14;12.70;99.90
57390;DHT22;43217;52.694;6.214;2023-05-07T06:11:40;12.70;99.90
57390;DHT22;43217;52.694;6.214;2023-05-07T06:14:06;12.70;99.90
57390;DHT22;43217;52.694;6.214;2023-05-07T06:16:32;12.70;99.90
57390;DHT22;43217;52.694;6.214;2023-05-07T06:18:57;12.70;99.90
57390;DHT22;43217;52.694;6.214;2023-05-07T06:21:23;12.70;99.90
57390;DHT22;43217;52.694;6.214;2023-05-07T06:23:48;12.70;99.90
57390;DHT22;43217;52.694;6.214;2023-05-07T06:26:14;12.70;99.90
57390;DHT22;43217;52.694;6.214;2023-05-07T06:28:40;12.70;99.90
57390;DHT22;43217;52.694;6.214;2023-05-07T06:31:13;12.70;99.90
57390;DHT22;43217;52.694;6.214;2023-05-07T06:33:39;12.80;99.90
57390;DHT22;43217;52.694;6.214;2023-05-07T06:36:05;12.90;99.90
57390;DHT22;43217;52.694;6.214;2023-05-07T06:38:31;13.00;99.90
57390;DHT22;43217;52.694;6.214;2023-05-07T06:40:57;13.30;99.90
57390;DHT22;43217;52.694;6.214;2023-05-07T06:43:22;13.70;99.90
57390;DHT22;43217;52.694;6.214;2023-05-07T06:45:48;14.00;99.90
57390;DHT22;43217;52.694;6.214;2023-05-07T06:48:14;14.10;99.90
57390;DHT22;43217;52.694;6.214;2023-05-07T06:50:39;14.20;99.90
57390;DHT22;43217;52.694;6.214;2023-05-07T06:53:05;14.30;99.90
57390;DHT22;43217;52.694;6.214;2023-05-07T06:55:31;14.30;99.90
57390;DHT22;43217;52.694;6.214;2023-05-07T06:57:58;14.40;99.90
57390;DHT22;43217;52.694;6.214;2023-05-07T07:00:27;14.70;99.90
57390;DHT22;43217;52.694;6.214;2023-05-07T07:02:54;15.00;99.90
57390;DHT22;43217;52.694;6.214;2023-05-07T07:05:20;15.20;99.90
57390;DHT22;43217;52.694;6.214;2023-05-07T07:07:46;15.30;99.90
57390;DHT22;43217;52.694;6.214;2023-05-07T07:10:21;15.50;99.90
57390;DHT22;43217;52.694;6.214;2023-05-07T07:12:50;15.60;99.90
57390;DHT22;43217;52.694;6.214;2023-05-07T07:15:16;15.80;99.90
57390;DHT22;43217;52.694;6.214;2023-05-07T07:17:42;16.00;99.90
57390;DHT22;43217;52.694;6.214;2023-05-07T07:20:08;16.20;99.90
57390;DHT22;43217;52.694;6.214;2023-05-07T07:22:34;16.30;99.90
57390;DHT22;43217;52.694;6.214;2023-05-07T07:24:59;16.40;99.90
57390;DHT22;43217;52.694;6.214;2023-05-07T07:27:25;16.60;99.90
57390;DHT22;43217;52.694;6.214;2023-05-07T07:29:51;16.80;99.90
57390;DHT22;43217;52.694;6.214;2023-05-07T07:32:17;17.00;99.90
57390;DHT22;43217;52.694;6.214;2023-05-07T07:34:42;17.30;99.90
57390;DHT22;43217;52.694;6.214;2023-05-07T07:37:08;17.30;99.90
57390;DHT22;43217;52.694;6.214;2023-05-07T07:39:34;17.20;99.90
57390;DHT22;43217;52.694;6.214;2023-05-07T07:42:00;17.00;99.90
57390;DHT22;43217;52.694;6.214;2023-05-07T07:44:27;17.00;99.90
57390;DHT22;43217;52.694;6.214;2023-05-07T07:46:54;16.90;99.90
57390;DHT22;43217;52.694;6.214;2023-05-07T07:49:19;16.70;99.90
57390;DHT22;43217;52.694;6.214;2023-05-07T07:51:45;16.50;99.90
57390;DHT22;43217;52.694;6.214;2023-05-07T07:54:10;16.40;99.90
57390;DHT22;43217;52.694;6.214;2023-05-07T07:56:36;16.30;99.90
57390;DHT22;43217;52.694;6.214;2023-05-07T07:59:02;16.10;99.90
57390;DHT22;43217;52.694;6.214;2023-05-07T08:01:30;16.00;99.90
57390;DHT22;43217;52.694;6.214;2023-05-07T08:03:55;15.90;99.90
57390;DHT22;43217;52.694;6.214;2023-05-07T08:06:23;15.90;99.90
57390;DHT22;43217;52.694;6.214;2023-05-07T08:08:48;15.90;99.90
57390;DHT22;43217;52.694;6.214;2023-05-07T08:11:14;16.00;99.90
57390;DHT22;43217;52.694;6.214;2023-05-07T08:13:40;16.00;99.90
57390;DHT22;43217;52.694;6.214;2023-05-07T08:16:05;15.90;99.90
57390;DHT22;43217;52.694;6.214;2023-05-07T08:18:31;16.00;99.90
57390;DHT22;43217;52.694;6.214;2023-05-07T08:20:57;16.30;99.90
57390;DHT22;43217;52.694;6.214;2023-05-07T08:23:22;16.70;99.90
57390;DHT22;43217;52.694;6.214;2023-05-07T08:25:49;17.00;99.90
57390;DHT22;43217;52.694;6.214;2023-05-07T08:28:15;17.20;99.90
57390;DHT22;43217;52.694;6.214;2023-05-07T08:30:44;17.30;99.90
57390;DHT22;43217;52.694;6.214;2023-05-07T08:33:09;17.60;99.90
57390;DHT22;43217;52.694;6.214;2023-05-07T08:35:35;18.00;99.90
57390;DHT22;43217;52.694;6.214;2023-05-07T08:38:02;18.50;99.90
57390;DHT22;43217;52.694;6.214;2023-05-07T08:40:28;19.20;99.90
57390;DHT22;43217;52.694;6.214;2023-05-07T08:42:55;19.20;99.90
57390;DHT22;43217;52.694;6.214;2023-05-07T08:45:21;19.00;99.90
57390;DHT22;43217;52.694;6.214;2023-05-07T08:47:52;19.00;99.90
57390;DHT22;43217;52.694;6.214;2023-05-07T08:50:20;19.20;99.90
57390;DHT22;43217;52.694;6.214;2023-05-07T08:52:47;19.40;99.90
57390;DHT22;43217;52.694;6.214;2023-05-07T08:55:13;19.60;99.90
57390;DHT22;43217;52.694;6.214;2023-05-07T08:57:39;19.70;99.90
57390;DHT22;43217;52.694;6.214;2023-05-07T09:00:05;19.70;99.90
57390;DHT22;43217;52.694;6.214;2023-05-07T09:02:34;19.70;99.90
57390;DHT22;43217;52.694;6.214;2023-05-07T09:05:00;20.00;99.90
57390;DHT22;43217;52.694;6.214;2023-05-07T09:07:25;20.20;99.90
57390;DHT22;43217;52.694;6.214;2023-05-07T09:09:52;20.40;99.90
57390;DHT22;43217;52.694;6.214;2023-05-07T09:12:19;20.40;99.90
57390;DHT22;43217;52.694;6.214;2023-05-07T09:14:45;20.40;99.90
57390;DHT22;43217;52.694;6.214;2023-05-07T09:17:11;20.30;99.90
57390;DHT22;43217;52.694;6.214;2023-05-07T09:19:37;20.10;99.90
57390;DHT22;43217;52.694;6.214;2023-05-07T09:22:04;20.10;99.90
57390;DHT22;43217;52.694;6.214;2023-05-07T09:24:30;20.10;99.90
57390;DHT22;43217;52.694;6.214;2023-05-07T09:27:01;20.10;99.90
57390;DHT22;43217;52.694;6.214;2023-05-07T09:29:27;20.00;99.90
57390;DHT22;43217;52.694;6.214;2023-05-07T09:32:01;19.90;99.90
57390;DHT22;43217;52.694;6.214;2023-05-07T09:34:29;19.80;99.90
57390;DHT22;43217;52.694;6.214;2023-05-07T09:36:55;19.70;99.90
57390;DHT22;43217;52.694;6.214;2023-05-07T09:39:23;19.60;99.90
57390;DHT22;43217;52.694;6.214;2023-05-07T09:41:48;19.60;99.90
57390;DHT22;43217;52.694;6.214;2023-05-07T09:44:20;19.70;99.90
57390;DHT22;43217;52.694;6.214;2023-05-07T09:46:49;19.90;99.90
57390;DHT22;43217;52.694;6.214;2023-05-07T09:49:23;19.90;99.90
57390;DHT22;43217;52.694;6.214;2023-05-07T09:51:51;19.90;99.90
57390;DHT22;43217;52.694;6.214;2023-05-07T09:54:17;19.80;99.90
57390;DHT22;43217;52.694;6.214;2023-05-07T09:56:44;19.80;99.90
57390;DHT22;43217;52.694;6.214;2023-05-07T09:59:13;19.90;99.90
57390;DHT22;43217;52.694;6.214;2023-05-07T10:01:41;19.80;99.90
57390;DHT22;43217;52.694;6.214;2023-05-07T10:04:07;19.90;99.90
57390;DHT22;43217;52.694;6.214;2023-05-07T10:06:34;19.90;99.90
57390;DHT22;43217;52.694;6.214;2023-05-07T10:09:01;19.90;99.90
57390;DHT22;43217;52.694;6.214;2023-05-07T10:11:28;19.90;99.90
57390;DHT22;43217;52.694;6.214;2023-05-07T10:13:54;19.80;99.90
57390;DHT22;43217;52.694;6.214;2023-05-07T10:16:21;19.80;99.90
57390;DHT22;43217;52.694;6.214;2023-05-07T10:18:47;19.90;99.90
57390;DHT22;43217;52.694;6.214;2023-05-07T10:21:18;20.10;99.90
57390;DHT22;43217;52.694;6.214;2023-05-07T10:23:53;20.20;99.90
57390;DHT22;43217;52.694;6.214;2023-05-07T10:26:23;20.20;99.90
57390;DHT22;43217;52.694;6.214;2023-05-07T10:29:07;20.30;99.90
57390;DHT22;43217;52.694;6.214;2023-05-07T10:34:15;20.40;99.90
57390;DHT22;43217;52.694;6.214;2023-05-07T10:36:42;20.40;99.90
57390;DHT22;43217;52.694;6.214;2023-05-07T10:39:08;20.40;99.90
57390;DHT22;43217;52.694;6.214;2023-05-07T10:41:35;20.50;99.90
57390;DHT22;43217;52.694;6.214;2023-05-07T10:44:02;20.60;99.90
57390;DHT22;43217;52.694;6.214;2023-05-07T10:46:29;20.50;99.90
57390;DHT22;43217;52.694;6.214;2023-05-07T10:51:32;20.50;99.90
57390;DHT22;43217;52.694;6.214;2023-05-07T10:56:40;20.40;99.90
57390;DHT22;43217;52.694;6.214;2023-05-07T10:59:38;20.50;99.90
57390;DHT22;43217;52.694;6.214;2023-05-07T11:02:07;20.70;99.90
57390;DHT22;43217;52.694;6.214;2023-05-07T11:04:35;20.90;99.90
57390;DHT22;43217;52.694;6.214;2023-05-07T11:15:12;21.20;99.90
57390;DHT22;43217;52.694;6.214;2023-05-07T11:17:55;21.10;99.90
57390;DHT22;43217;52.694;6.214;2023-05-07T11:26:02;21.10;99.90
57390;DHT22;43217;52.694;6.214;2023-05-07T11:28:29;21.10;99.90
57390;DHT22;43217;52.694;6.214;2023-05-07T11:30:56;21.10;99.90
57390;DHT22;43217;52.694;6.214;2023-05-07T11:33:22;21.10;99.90
57390;DHT22;43217;52.694;6.214;2023-05-07T11:35:48;21.10;99.90
57390;DHT22;43217;52.694;6.214;2023-05-07T11:38:13;21.10;99.90
57390;DHT22;43217;52.694;6.214;2023-05-07T11:40:58;21.10;99.90
57390;DHT22;43217;52.694;6.214;2023-05-07T11:43:26;21.10;99.90
57390;DHT22;43217;52.694;6.214;2023-05-07T11:45:52;21.10;99.90
57390;DHT22;43217;52.694;6.214;2023-05-07T11:48:18;21.10;99.90
57390;DHT22;43217;52.694;6.214;2023-05-07T11:50:53;21.10;99.90
57390;DHT22;43217;52.694;6.214;2023-05-07T11:53:20;21.10;99.90
57390;DHT22;43217;52.694;6.214;2023-05-07T11:55:46;21.00;99.90
57390;DHT22;43217;52.694;6.214;2023-05-07T11:58:12;21.00;99.90
57390;DHT22;43217;52.694;6.214;2023-05-07T12:00:53;21.00;99.90
57390;DHT22;43217;52.694;6.214;2023-05-07T12:03:19;21.10;99.90
57390;DHT22;43217;52.694;6.214;2023-05-07T12:05:45;21.20;99.90
57390;DHT22;43217;52.694;6.214;2023-05-07T12:08:17;21.30;99.90
57390;DHT22;43217;52.694;6.214;2023-05-07T12:10:44;21.30;99.90
57390;DHT22;43217;52.694;6.214;2023-05-07T12:13:17;21.20;99.90
57390;DHT22;43217;52.694;6.214;2023-05-07T12:15:44;21.10;99.90
57390;DHT22;43217;52.694;6.214;2023-05-07T12:18:11;21.00;99.90
57390;DHT22;43217;52.694;6.214;2023-05-07T12:20:37;21.10;99.90
57390;DHT22;43217;52.694;6.214;2023-05-07T12:23:03;21.10;99.90
57390;DHT22;43217;52.694;6.214;2023-05-07T12:25:36;21.00;99.90
57390;DHT22;43217;52.694;6.214;2023-05-07T12:28:02;20.90;99.90
57390;DHT22;43217;52.694;6.214;2023-05-07T12:30:31;20.90;99.90
57390;DHT22;43217;52.694;6.214;2023-05-07T12:32:57;20.80;99.90
57390;DHT22;43217;52.694;6.214;2023-05-07T12:35:39;20.70;99.90
57390;DHT22;43217;52.694;6.214;2023-05-07T12:38:13;20.70;99.90
57390;DHT22;43217;52.694;6.214;2023-05-07T12:40:40;20.60;99.90
57390;DHT22;43217;52.694;6.214;2023-05-07T12:43:06;20.60;99.90
57390;DHT22;43217;52.694;6.214;2023-05-07T12:45:37;20.60;99.90
57390;DHT22;43217;52.694;6.214;2023-05-07T12:48:03;20.50;99.90
57390;DHT22;43217;52.694;6.214;2023-05-07T12:50:33;20.50;99.90
57390;DHT22;43217;52.694;6.214;2023-05-07T12:52:59;20.40;99.90
57390;DHT22;43217;52.694;6.214;2023-05-07T12:55:24;20.50;99.90
57390;DHT22;43217;52.694;6.214;2023-05-07T12:57:51;20.50;99.90
57390;DHT22;43217;52.694;6.214;2023-05-07T13:00:18;20.50;99.90
57390;DHT22;43217;52.694;6.214;2023-05-07T13:02:58;20.60;99.90
57390;DHT22;43217;52.694;6.214;2023-05-07T13:05:24;20.50;99.90
57390;DHT22;43217;52.694;6.214;2023-05-07T13:07:56;20.50;99.90
57390;DHT22;43217;52.694;6.214;2023-05-07T13:10:25;20.50;99.90
57390;DHT22;43217;52.694;6.214;2023-05-07T13:12:51;20.50;99.90
57390;DHT22;43217;52.694;6.214;2023-05-07T13:15:20;20.50;99.90
57390;DHT22;43217;52.694;6.214;2023-05-07T13:17:46;20.50;99.90
57390;DHT22;43217;52.694;6.214;2023-05-07T13:20:12;20.50;99.90
57390;DHT22;43217;52.694;6.214;2023-05-07T13:22:40;20.50;99.90
57390;DHT22;43217;52.694;6.214;2023-05-07T13:25:07;20.50;99.90
57390;DHT22;43217;52.694;6.214;2023-05-07T13:27:32;20.60;99.90
57390;DHT22;43217;52.694;6.214;2023-05-07T13:30:02;20.60;99.90
57390;DHT22;43217;52.694;6.214;2023-05-07T13:32:28;20.70;99.90
57390;DHT22;43217;52.694;6.214;2023-05-07T13:34:55;20.70;99.90
57390;DHT22;43217;52.694;6.214;2023-05-07T13:37:20;20.70;99.90
57390;DHT22;43217;52.694;6.214;2023-05-07T13:39:46;20.80;99.90
57390;DHT22;43217;52.694;6.214;2023-05-07T13:42:12;20.90;99.90
57390;DHT22;43217;52.694;6.214;2023-05-07T13:44:37;20.90;99.90
57390;DHT22;43217;52.694;6.214;2023-05-07T13:47:03;20.80;99.90
57390;DHT22;43217;52.694;6.214;2023-05-07T13:49:28;20.80;99.90
57390;DHT22;43217;52.694;6.214;2023-05-07T13:51:55;20.70;99.90
57390;DHT22;43217;52.694;6.214;2023-05-07T13:54:21;20.60;99.90
57390;DHT22;43217;52.694;6.214;2023-05-07T13:56:46;20.60;99.90
57390;DHT22;43217;52.694;6.214;2023-05-07T13:59:12;20.70;99.90
57390;DHT22;43217;52.694;6.214;2023-05-07T14:01:39;20.70;99.90
57390;DHT22;43217;52.694;6.214;2023-05-07T14:04:07;20.80;99.90
57390;DHT22;43217;52.694;6.214;2023-05-07T14:06:33;20.80;99.90
57390;DHT22;43217;52.694;6.214;2023-05-07T14:08:58;20.80;99.90
57390;DHT22;43217;52.694;6.214;2023-05-07T14:11:25;20.80;99.90
57390;DHT22;43217;52.694;6.214;2023-05-07T14:13:51;20.90;99.90
57390;DHT22;43217;52.694;6.214;2023-05-07T14:16:16;20.70;99.90
57390;DHT22;43217;52.694;6.214;2023-05-07T14:18:42;20.60;99.90
57390;DHT22;43217;52.694;6.214;2023-05-07T14:21:09;20.60;99.90
57390;DHT22;43217;52.694;6.214;2023-05-07T14:23:35;20.60;99.90
57390;DHT22;43217;52.694;6.214;2023-05-07T14:26:01;20.50;99.90
57390;DHT22;43217;52.694;6.214;2023-05-07T14:28:26;20.40;99.90
57390;DHT22;43217;52.694;6.214;2023-05-07T14:30:52;20.40;99.90
57390;DHT22;43217;52.694;6.214;2023-05-07T14:33:18;20.30;99.90
57390;DHT22;43217;52.694;6.214;2023-05-07T14:35:43;20.20;99.90
57390;DHT22;43217;52.694;6.214;2023-05-07T14:38:14;20.10;99.90
57390;DHT22;43217;52.694;6.214;2023-05-07T14:40:40;20.10;99.90
57390;DHT22;43217;52.694;6.214;2023-05-07T14:43:05;20.10;99.90
57390;DHT22;43217;52.694;6.214;2023-05-07T14:45:31;20.10;99.90
57390;DHT22;43217;52.694;6.214;2023-05-07T14:47:57;20.10;99.90
57390;DHT22;43217;52.694;6.214;2023-05-07T14:50:22;20.10;99.90
57390;DHT22;43217;52.694;6.214;2023-05-07T14:52:48;19.90;99.90
57390;DHT22;43217;52.694;6.214;2023-05-07T14:55:14;19.90;99.90
57390;DHT22;43217;52.694;6.214;2023-05-07T14:57:47;19.90;99.90
57390;DHT22;43217;52.694;6.214;2023-05-07T15:00:15;19.80;99.90
57390;DHT22;43217;52.694;6.214;2023-05-07T15:02:41;19.70;99.90
57390;DHT22;43217;52.694;6.214;2023-05-07T15:05:07;19.80;99.90
57390;DHT22;43217;52.694;6.214;2023-05-07T15:07:32;19.80;99.90
57390;DHT22;43217;52.694;6.214;2023-05-07T15:09:59;19.80;99.90
57390;DHT22;43217;52.694;6.214;2023-05-07T15:12:25;19.70;99.90
57390;DHT22;43217;52.694;6.214;2023-05-07T15:14:51;19.70;99.90
57390;DHT22;43217;52.694;6.214;2023-05-07T15:17:16;19.80;99.90
57390;DHT22;43217;52.694;6.214;2023-05-07T15:19:42;19.70;99.90
57390;DHT22;43217;52.694;6.214;2023-05-07T15:22:19;19.70;99.90
57390;DHT22;43217;52.694;6.214;2023-05-07T15:24:47;19.70;99.90
57390;DHT22;43217;52.694;6.214;2023-05-07T15:27:16;19.70;99.90
57390;DHT22;43217;52.694;6.214;2023-05-07T15:29:44;19.70;99.90
57390;DHT22;43217;52.694;6.214;2023-05-07T15:32:10;19.70;99.90
57390;DHT22;43217;52.694;6.214;2023-05-07T15:34:36;19.70;99.90
57390;DHT22;43217;52.694;6.214;2023-05-07T15:37:02;19.60;99.90
57390;DHT22;43217;52.694;6.214;2023-05-07T15:39:27;19.60;99.90
57390;DHT22;43217;52.694;6.214;2023-05-07T15:41:53;19.50;99.90
57390;DHT22;43217;52.694;6.214;2023-05-07T15:44:19;19.50;99.90
57390;DHT22;43217;52.694;6.214;2023-05-07T15:46:44;19.40;99.90
57390;DHT22;43217;52.694;6.214;2023-05-07T15:49:10;19.40;99.90